createdAt,value
2019-04-28T00:02:04.642Z,85.66
2019-04-28T00:04:34.207Z,85.71
2019-04-28T00:07:03.755Z,85.88
2019-04-28T00:09:33.295Z,85.25
2019-04-28T00:12:03.625Z,86.32
2019-04-28T00:14:33.124Z,86.57
2019-04-28T00:17:02.745Z,85.95
2019-04-28T00:19:32.297Z,86.59
2019-04-28T00:22:11.054Z,86.05
2019-04-28T00:24:42.351Z,86.16
2019-04-28T00:27:12.369Z,86.74
2019-04-28T00:29:46.001Z,86.79
2019-04-28T00:32:13.278Z,86.55
2019-04-28T00:34:42.775Z,86.56
2019-04-28T00:37:13.990Z,86.27
2019-04-28T00:39:43.459Z,85.69
2019-04-28T00:42:13.032Z,87.46
2019-04-28T00:44:43.398Z,88.46
2019-04-28T00:47:13.034Z,87.13
2019-04-28T00:49:48.422Z,87.91
2019-04-28T00:52:19.702Z,88.42
2019-04-28T00:54:49.603Z,89.84
2019-04-28T00:57:21.047Z,88.30
2019-04-28T00:59:57.795Z,88.15
2019-04-28T01:02:35.744Z,88.85
2019-04-28T01:05:08.617Z,88.45
2019-04-28T01:07:38.157Z,88.33
2019-04-28T01:10:10.942Z,90.95
2019-04-28T01:12:41.172Z,88.79
2019-04-28T01:15:13.124Z,89.51
2019-04-28T01:17:42.416Z,88.83
2019-04-28T01:20:13.793Z,89.53
2019-04-28T01:22:43.266Z,87.67
2019-04-28T01:25:13.151Z,86.75
2019-04-28T01:27:42.430Z,87.70
2019-04-28T01:30:29.974Z,86.99
2019-04-28T01:33:03.855Z,88.16
2019-04-28T01:35:33.342Z,87.19
2019-04-28T01:38:02.828Z,87.79
2019-04-28T01:40:32.399Z,87.15
2019-04-28T01:43:01.871Z,86.89
2019-04-28T01:45:31.391Z,87.10
2019-04-28T01:48:02.289Z,87.73
2019-04-28T01:50:31.847Z,86.98
2019-04-28T01:53:01.385Z,88.66
2019-04-28T01:55:30.971Z,88.36
2019-04-28T01:58:00.460Z,87.95
2019-04-28T02:00:30.374Z,88.29
2019-04-28T02:03:01.805Z,87.88
2019-04-28T02:05:31.108Z,87.27
2019-04-28T02:08:00.607Z,87.69
2019-04-28T02:10:30.273Z,87.45
2019-04-28T02:12:59.963Z,87.15
2019-04-28T02:15:30.227Z,88.70
2019-04-28T02:18:00.219Z,88.21
2019-04-28T02:20:30.214Z,89.43
2019-04-28T02:23:04.166Z,88.43
2019-04-28T02:25:33.736Z,89.53
2019-04-28T02:28:03.223Z,88.01
2019-04-28T02:30:47.760Z,88.75
2019-04-28T02:33:03.986Z,87.26
2019-04-28T02:35:34.229Z,88.66
2019-04-28T02:38:04.075Z,90.75
2019-04-28T02:40:33.555Z,90.02
2019-04-28T02:43:03.027Z,89.33
2019-04-28T02:45:33.866Z,91.18
2019-04-28T02:48:05.021Z,91.42
2019-04-28T02:50:36.117Z,90.62
2019-04-28T02:53:13.492Z,90.28
2019-04-28T02:55:42.967Z,89.73
2019-04-28T02:58:13.497Z,89.90
2019-04-28T03:01:00.998Z,89.59
2019-04-28T03:03:14.585Z,90.03
2019-04-28T03:05:44.196Z,90.36
2019-04-28T03:08:13.700Z,90.35
2019-04-28T03:10:43.351Z,90.73
2019-04-28T03:13:13.542Z,91.46
2019-04-28T03:15:43.948Z,90.90
2019-04-28T03:18:13.579Z,89.99
2019-04-28T03:20:43.287Z,90.91
2019-04-28T03:23:12.786Z,90.99
2019-04-28T03:25:42.035Z,90.90
2019-04-28T03:28:25.243Z,89.89
2019-04-28T03:31:34.297Z,90.46
2019-04-28T03:33:46.755Z,90.94
2019-04-28T03:36:13.887Z,90.69
2019-04-28T03:38:40.715Z,90.64
2019-04-28T03:41:11.170Z,90.22
2019-04-28T03:43:40.911Z,90.26
2019-04-28T03:46:21.883Z,88.37
2019-04-28T03:48:51.404Z,90.09
2019-04-28T03:51:21.312Z,89.39
2019-04-28T03:53:50.948Z,90.40
2019-04-28T03:56:21.023Z,89.48
2019-04-28T03:58:50.689Z,89.42
2019-04-28T04:01:20.814Z,90.17
2019-04-28T04:03:51.511Z,90.04
2019-04-28T04:06:22.723Z,91.30
2019-04-28T04:08:52.340Z,90.21
2019-04-28T04:11:35.305Z,90.22
2019-04-28T04:14:06.688Z,90.17
2019-04-28T04:16:46.625Z,89.49
2019-04-28T04:19:17.187Z,90.31
2019-04-28T04:21:46.667Z,90.94
2019-04-28T04:24:16.135Z,90.57
2019-04-28T04:26:45.691Z,90.64
2019-04-28T04:29:15.196Z,90.09
2019-04-28T04:31:44.726Z,90.90
2019-04-28T04:34:14.185Z,91.64
2019-04-28T04:36:43.663Z,91.00
2019-04-28T04:39:13.225Z,90.38
2019-04-28T04:41:43.818Z,90.61
2019-04-28T04:44:13.526Z,90.62
2019-04-28T04:46:43.029Z,89.88
2019-04-28T04:49:12.519Z,90.29
2019-04-28T04:51:43.897Z,88.96
2019-04-28T04:54:13.193Z,91.31
2019-04-28T04:56:42.663Z,90.39
2019-04-28T04:59:12.165Z,89.75
2019-04-28T05:01:52.125Z,89.37
2019-04-28T05:04:23.264Z,89.53
2019-04-28T05:06:52.746Z,90.42
2019-04-28T05:09:22.222Z,89.43
2019-04-28T05:11:52.872Z,88.28
2019-04-28T05:14:22.358Z,89.09
2019-04-28T05:16:51.826Z,88.07
2019-04-28T05:19:21.324Z,89.83
2019-04-28T05:21:50.889Z,88.92
2019-04-28T05:24:30.401Z,86.78
2019-04-28T05:26:59.962Z,88.01
2019-04-28T05:29:30.633Z,89.07
2019-04-28T05:32:03.338Z,88.29
2019-04-28T05:34:31.611Z,88.50
2019-04-28T05:37:01.109Z,89.25
2019-04-28T05:39:30.601Z,87.98
2019-04-28T05:42:00.809Z,88.85
2019-04-28T05:44:32.083Z,87.99
2019-04-28T05:47:01.774Z,86.87
2019-04-28T05:49:43.024Z,88.64
2019-04-28T05:52:30.309Z,89.84
2019-04-28T05:55:07.096Z,90.13
2019-04-28T05:57:40.949Z,89.16
2019-04-28T06:00:13.223Z,89.88
2019-04-28T06:02:56.557Z,89.52
2019-04-28T06:05:24.029Z,88.57
2019-04-28T06:07:53.371Z,88.45
2019-04-28T06:10:22.938Z,88.87
2019-04-28T06:12:52.428Z,85.87
2019-04-28T06:15:21.956Z,85.06
2019-04-28T06:17:51.421Z,87.16
2019-04-28T06:20:21.156Z,86.17
2019-04-28T06:22:50.685Z,85.40
2019-04-28T06:25:20.198Z,84.68
2019-04-28T06:27:49.648Z,85.85
2019-04-28T06:30:19.364Z,84.83
2019-04-28T06:32:48.935Z,85.62
2019-04-28T06:35:18.501Z,85.29
2019-04-28T06:37:48.001Z,83.09
2019-04-28T06:40:17.675Z,82.96
2019-04-28T06:42:47.151Z,82.47
2019-04-28T06:45:16.664Z,82.71
2019-04-28T06:47:46.165Z,82.34
2019-04-28T06:50:15.864Z,80.80
2019-04-28T06:52:45.341Z,81.34
2019-04-28T06:55:14.977Z,79.94
2019-04-28T06:57:44.501Z,80.66
2019-04-28T07:00:14.333Z,80.64
2019-04-28T07:02:43.826Z,78.78
2019-04-28T07:05:13.456Z,76.94
2019-04-28T07:07:43.025Z,76.41
2019-04-28T07:10:12.603Z,76.59
2019-04-28T07:12:42.128Z,77.48
2019-04-28T07:15:11.746Z,75.87
2019-04-28T07:17:41.226Z,79.36
2019-04-28T07:20:21.687Z,78.67
2019-04-28T07:22:51.184Z,79.26
2019-04-28T07:25:20.674Z,78.35
2019-04-28T07:27:50.168Z,77.70
2019-04-28T07:30:19.795Z,77.19
2019-04-28T07:32:49.350Z,74.09
2019-04-28T07:35:19.308Z,75.74
2019-04-28T07:37:48.813Z,73.84
2019-04-28T07:40:18.376Z,66.61
2019-04-28T07:42:47.859Z,62.07
2019-04-28T07:45:17.441Z,57.83
2019-04-28T07:47:46.941Z,59.21
2019-04-28T07:50:16.433Z,51.06
2019-04-28T07:52:57.290Z,51.05
2019-04-28T07:55:26.955Z,57.18
2019-04-28T07:57:56.423Z,59.97
2019-04-28T08:00:27.602Z,63.77
2019-04-28T08:02:57.103Z,61.06
2019-04-28T08:05:26.667Z,63.53
2019-04-28T08:07:56.260Z,65.42
2019-04-28T08:10:25.746Z,66.88
2019-04-28T08:12:55.313Z,65.05
2019-04-28T08:15:24.798Z,57.58
2019-04-28T08:17:54.387Z,53.69
2019-04-28T08:20:23.976Z,50.28
2019-04-28T08:22:53.459Z,48.91
2019-04-28T08:25:22.953Z,48.99
2019-04-28T08:27:52.461Z,52.01
2019-04-28T08:30:22.010Z,58.59
2019-04-28T08:33:02.158Z,61.85
2019-04-28T08:35:31.687Z,62.40
2019-04-28T08:38:01.236Z,63.23
2019-04-28T08:40:30.774Z,66.56
2019-04-28T08:43:00.277Z,66.64
2019-04-28T08:45:29.926Z,70.12
2019-04-28T08:47:59.428Z,70.42
2019-04-28T08:50:28.958Z,69.87
2019-04-28T08:52:58.631Z,66.92
2019-04-28T08:55:28.194Z,68.64
2019-04-28T08:57:57.706Z,67.52
2019-04-28T09:00:27.211Z,69.88
2019-04-28T09:02:56.696Z,69.37
2019-04-28T09:05:27.286Z,66.16
2019-04-28T09:07:56.839Z,68.26
2019-04-28T09:10:26.339Z,68.67
2019-04-28T09:12:55.931Z,67.61
2019-04-28T09:15:25.414Z,62.85
2019-04-28T09:17:54.920Z,57.30
2019-04-28T09:20:24.443Z,50.54
2019-04-28T09:22:53.923Z,51.93
2019-04-28T09:25:23.421Z,57.51
2019-04-28T09:27:53.000Z,56.92
2019-04-28T09:30:22.602Z,60.34
2019-04-28T09:32:52.098Z,60.75
2019-04-28T09:35:21.704Z,65.73
2019-04-28T09:37:51.206Z,65.62
2019-04-28T09:40:20.678Z,68.06
2019-04-28T09:43:07.456Z,66.00
2019-04-28T09:45:47.404Z,68.51
2019-04-28T09:48:16.914Z,60.44
2019-04-28T09:50:46.509Z,58.31
2019-04-28T09:53:16.002Z,59.17
2019-04-28T09:55:45.502Z,59.65
2019-04-28T09:58:14.994Z,57.09
2019-04-28T10:00:45.402Z,55.35
2019-04-28T10:03:14.948Z,57.35
2019-04-28T10:05:44.520Z,56.89
2019-04-28T10:08:13.996Z,56.93
2019-04-28T10:10:43.510Z,54.04
2019-04-28T10:13:12.995Z,53.19
2019-04-28T10:15:42.575Z,55.06
2019-04-28T10:18:12.083Z,51.56
2019-04-28T10:20:41.732Z,51.08
2019-04-28T10:23:11.856Z,49.81
2019-04-28T10:25:41.769Z,49.93
2019-04-28T10:28:11.357Z,48.89
2019-04-28T10:30:40.986Z,49.17
2019-04-28T10:33:10.494Z,47.29
2019-04-28T10:35:39.977Z,49.59
2019-04-28T10:38:09.493Z,53.07
2019-04-28T10:40:48.672Z,52.57
2019-04-28T10:43:18.255Z,52.99
2019-04-28T10:45:51.396Z,54.25
2019-04-28T10:48:20.900Z,53.12
2019-04-28T10:50:50.498Z,50.84
2019-04-28T10:53:20.070Z,48.67
2019-04-28T10:55:49.589Z,47.56
2019-04-28T10:58:19.122Z,49.90
2019-04-28T11:00:48.674Z,49.07
2019-04-28T11:03:18.147Z,49.06
2019-04-28T11:05:47.740Z,51.31
2019-04-28T11:08:34.853Z,52.13
2019-04-28T11:11:05.979Z,51.46
2019-04-28T11:13:35.466Z,52.32
2019-04-28T11:16:05.040Z,45.54
2019-04-28T11:18:34.634Z,49.30
2019-04-28T11:21:04.345Z,49.59
2019-04-28T11:23:33.865Z,51.43
2019-04-28T11:26:03.466Z,55.26
2019-04-28T11:28:33.039Z,52.51
2019-04-28T11:31:02.765Z,49.49
2019-04-28T11:33:39.989Z,49.65
2019-04-28T11:36:09.613Z,48.50
2019-04-28T11:38:39.134Z,46.96
2019-04-28T11:41:11.515Z,49.35
2019-04-28T11:43:40.007Z,47.31
2019-04-28T11:46:11.192Z,49.85
2019-04-28T11:48:40.709Z,49.91
2019-04-28T11:51:10.283Z,54.38
2019-04-28T11:53:39.790Z,55.48
2019-04-28T11:56:09.396Z,57.62
2019-04-28T11:58:38.979Z,55.48
2019-04-28T12:01:09.835Z,54.69
2019-04-28T12:03:39.336Z,56.68
2019-04-28T12:06:09.082Z,57.76
2019-04-28T12:08:38.601Z,60.38
2019-04-28T12:11:15.757Z,57.48
2019-04-28T12:13:56.040Z,57.29
2019-04-28T12:16:43.047Z,57.46
2019-04-28T12:19:14.232Z,58.07
2019-04-28T12:21:43.706Z,56.94
2019-04-28T12:24:13.193Z,56.07
2019-04-28T12:26:42.695Z,54.77
2019-04-28T12:29:12.178Z,55.26
2019-04-28T12:31:41.699Z,54.29
2019-04-28T12:34:11.197Z,53.84
2019-04-28T12:36:40.664Z,51.41
2019-04-28T12:39:10.445Z,52.11
2019-04-28T12:41:39.955Z,53.43
2019-04-28T12:44:09.558Z,56.98
2019-04-28T12:46:39.112Z,58.28
2019-04-28T12:49:22.341Z,64.75
2019-04-28T12:51:51.898Z,67.02
2019-04-28T12:54:23.175Z,67.83
2019-04-28T12:56:52.731Z,72.35
2019-04-28T12:59:26.599Z,69.01
2019-04-28T13:02:03.511Z,72.61
2019-04-28T13:04:34.764Z,67.62
2019-04-28T13:07:10.677Z,65.06
2019-04-28T13:09:40.207Z,64.48
2019-04-28T13:12:10.799Z,65.85
2019-04-28T13:14:40.457Z,62.88
2019-04-28T13:17:10.109Z,64.42
2019-04-28T13:19:39.690Z,67.99
2019-04-28T13:22:09.321Z,65.51
2019-04-28T13:24:38.849Z,67.61
2019-04-28T13:27:10.212Z,65.29
2019-04-28T13:29:39.602Z,66.64
2019-04-28T13:32:09.168Z,66.43
2019-04-28T13:34:40.566Z,65.01
2019-04-28T13:37:10.254Z,66.94
2019-04-28T13:39:50.271Z,69.01
2019-04-28T13:42:19.793Z,69.30
2019-04-28T13:45:02.883Z,70.92
2019-04-28T13:47:32.375Z,71.98
2019-04-28T13:50:03.493Z,71.32
2019-04-28T13:52:33.132Z,78.62
2019-04-28T13:55:07.385Z,86.42
2019-04-28T13:57:36.973Z,91.64
2019-04-28T14:00:13.779Z,91.44
2019-04-28T14:02:47.616Z,93.68
2019-04-28T14:05:21.598Z,92.18
2019-04-28T14:07:51.076Z,94.34
2019-04-28T14:10:20.611Z,94.59
2019-04-28T14:12:50.178Z,88.69
2019-04-28T14:15:19.633Z,91.40
2019-04-28T14:17:49.132Z,92.07
2019-04-28T14:20:18.685Z,92.90
2019-04-28T14:22:48.189Z,92.60
2019-04-28T14:25:17.747Z,93.28
2019-04-28T14:27:47.213Z,94.85
2019-04-28T14:30:16.881Z,93.49
2019-04-28T14:32:46.375Z,92.77
2019-04-28T14:35:16.154Z,92.40
2019-04-28T14:37:45.721Z,91.37
2019-04-28T14:40:15.483Z,87.44
2019-04-28T14:42:44.987Z,90.57
2019-04-28T14:45:14.707Z,90.76
2019-04-28T14:47:44.270Z,90.93
2019-04-28T14:50:14.223Z,94.14
2019-04-28T14:52:43.872Z,88.15
2019-04-28T14:55:13.408Z,84.36
2019-04-28T14:57:43.021Z,85.45
2019-04-28T15:00:14.646Z,81.59
2019-04-28T15:02:51.611Z,78.97
2019-04-28T15:05:40.634Z,80.18
2019-04-28T15:08:14.338Z,78.46
2019-04-28T15:10:49.293Z,72.06
2019-04-28T15:13:20.172Z,72.41
2019-04-28T15:15:49.787Z,74.99
2019-04-28T15:18:19.530Z,73.56
2019-04-28T15:20:49.120Z,72.62
2019-04-28T15:23:18.609Z,77.05
2019-04-28T15:25:48.224Z,77.67
2019-04-28T15:28:17.706Z,77.19
2019-04-28T15:30:47.188Z,77.28
2019-04-28T15:33:16.696Z,77.77
2019-04-28T15:35:46.305Z,79.67
2019-04-28T15:38:15.840Z,80.58
2019-04-28T15:40:45.342Z,80.07
2019-04-28T15:43:14.996Z,78.43
2019-04-28T15:45:44.497Z,79.99
2019-04-28T15:48:14.091Z,80.13
2019-04-28T15:50:43.744Z,81.76
2019-04-28T15:53:13.289Z,82.99
2019-04-28T15:55:47.523Z,81.07
2019-04-28T15:58:33.214Z,82.88
2019-04-28T16:01:03.184Z,82.33
2019-04-28T16:03:32.723Z,82.19
2019-04-28T16:06:02.385Z,82.90
2019-04-28T16:08:31.997Z,84.25
2019-04-28T16:11:01.542Z,80.98
2019-04-28T16:13:31.067Z,81.58
2019-04-28T16:16:00.598Z,78.76
2019-04-28T16:18:30.148Z,76.61
2019-04-28T16:20:59.736Z,74.58
2019-04-28T16:23:29.214Z,76.11
2019-04-28T16:25:58.730Z,75.70
2019-04-28T16:28:28.237Z,75.13
2019-04-28T16:30:57.855Z,76.24
2019-04-28T16:33:27.475Z,75.02
2019-04-28T16:35:56.956Z,73.88
2019-04-28T16:38:26.501Z,74.83
2019-04-28T16:40:57.751Z,77.33
2019-04-28T16:43:29.085Z,80.07
2019-04-28T16:45:58.734Z,76.83
2019-04-28T16:48:28.294Z,78.37
2019-04-28T16:50:57.819Z,77.19
2019-04-28T16:53:27.326Z,77.33
2019-04-28T16:55:58.574Z,77.46
2019-04-28T16:58:45.816Z,78.28
2019-04-28T17:01:26.218Z,78.75
2019-04-28T17:03:55.788Z,79.56
2019-04-28T17:06:25.554Z,78.13
2019-04-28T17:08:55.160Z,80.76
2019-04-28T17:11:24.750Z,79.69
2019-04-28T17:13:54.279Z,79.06
2019-04-28T17:16:23.885Z,78.84
2019-04-28T17:18:53.464Z,79.58
2019-04-28T17:21:23.041Z,80.55
2019-04-28T17:23:52.568Z,78.29
2019-04-28T17:26:22.151Z,79.26
2019-04-28T17:28:51.876Z,78.51
2019-04-28T17:31:21.394Z,76.68
2019-04-28T17:33:50.998Z,79.40
2019-04-28T17:36:20.798Z,78.29
2019-04-28T17:38:50.482Z,79.77
2019-04-28T17:41:19.958Z,80.03
2019-04-28T17:43:49.548Z,81.81
2019-04-28T17:46:19.163Z,82.35
2019-04-28T17:48:50.284Z,80.70
2019-04-28T17:51:19.780Z,82.06
2019-04-28T17:53:49.292Z,83.29
2019-04-28T17:56:18.874Z,85.39
2019-04-28T17:58:48.393Z,84.93
2019-04-28T18:01:36.039Z,84.39
2019-04-28T18:04:23.370Z,83.83
2019-04-28T18:06:57.490Z,82.18
2019-04-28T18:09:27.340Z,82.89
2019-04-28T18:11:56.978Z,83.12
2019-04-28T18:14:26.544Z,83.58
2019-04-28T18:17:13.721Z,84.60
2019-04-28T18:19:43.335Z,84.51
2019-04-28T18:22:12.937Z,85.28
2019-04-28T18:24:42.427Z,87.16
2019-04-28T18:27:11.925Z,87.71
2019-04-28T18:29:41.523Z,89.10
2019-04-28T18:32:24.851Z,89.09
2019-04-28T18:34:58.860Z,89.29
2019-04-28T18:37:45.887Z,90.92
2019-04-28T18:40:23.240Z,92.14
2019-04-28T18:42:55.011Z,93.55
2019-04-28T18:45:24.649Z,95.72
2019-04-28T18:47:54.228Z,97.98
2019-04-28T18:50:23.815Z,99.50
2019-04-28T18:52:53.418Z,100.00
2019-04-28T18:55:22.906Z,100.00
2019-04-28T18:57:52.626Z,100.00
2019-04-28T19:00:23.810Z,100.00
2019-04-28T19:02:53.387Z,100.00
2019-04-28T19:05:24.519Z,100.00
2019-04-28T19:08:02.648Z,100.00
2019-04-28T19:10:40.723Z,100.00
2019-04-28T19:13:11.856Z,100.00
2019-04-28T19:15:58.896Z,100.00
2019-04-28T19:18:35.741Z,100.00
2019-04-28T19:21:05.628Z,100.00
2019-04-28T19:23:35.112Z,100.00
2019-04-28T19:26:04.762Z,100.00
2019-04-28T19:28:34.264Z,100.00
2019-04-28T19:31:03.781Z,100.00
2019-04-28T19:33:33.411Z,100.00
2019-04-28T19:36:02.980Z,100.00
2019-04-28T19:38:32.484Z,100.00
2019-04-28T19:41:01.989Z,100.00
2019-04-28T19:43:31.484Z,100.00
2019-04-28T19:46:02.723Z,100.00
2019-04-28T19:48:32.319Z,100.00
2019-04-28T19:51:01.936Z,100.00
2019-04-28T19:53:31.960Z,100.00
2019-04-28T19:56:09.225Z,100.00
2019-04-28T19:58:46.194Z,100.00
2019-04-28T20:01:20.463Z,100.00
2019-04-28T20:03:50.008Z,100.00
2019-04-28T20:06:19.597Z,100.00
2019-04-28T20:08:49.105Z,100.00
2019-04-28T20:11:18.728Z,100.00
2019-04-28T20:13:48.411Z,100.00
2019-04-28T20:16:17.972Z,100.00
2019-04-28T20:18:49.036Z,100.00
2019-04-28T20:21:18.751Z,100.00
2019-04-28T20:23:48.265Z,100.00
2019-04-28T20:26:17.854Z,100.00
2019-04-28T20:28:47.494Z,100.00
2019-04-28T20:31:17.010Z,100.00
2019-04-28T20:33:46.553Z,100.00
2019-04-28T20:36:20.614Z,100.00
2019-04-28T20:38:51.818Z,100.00
2019-04-28T20:41:22.988Z,100.00
2019-04-28T20:43:54.024Z,100.00
2019-04-28T20:46:23.529Z,100.00
2019-04-28T20:48:53.046Z,100.00
2019-04-28T20:51:22.660Z,100.00
2019-04-28T20:53:52.220Z,100.00
2019-04-28T20:56:21.725Z,100.00
2019-04-28T20:58:51.196Z,100.00
2019-04-28T21:01:20.708Z,100.00
2019-04-28T21:03:50.209Z,100.00
2019-04-28T21:06:19.769Z,100.00
2019-04-28T21:08:49.270Z,100.00
2019-04-28T21:11:18.840Z,100.00
2019-04-28T21:13:48.358Z,100.00
2019-04-28T21:16:17.925Z,100.00
2019-04-28T21:18:47.461Z,100.00
2019-04-28T21:21:16.943Z,100.00
2019-04-28T21:23:46.443Z,100.00
2019-04-28T21:26:15.934Z,100.00
2019-04-28T21:28:45.450Z,100.00
2019-04-28T21:31:14.961Z,100.00
2019-04-28T21:33:44.458Z,100.00
2019-04-28T21:36:14.024Z,100.00
2019-04-28T21:38:43.522Z,100.00
2019-04-28T21:41:14.697Z,100.00
2019-04-28T21:43:48.901Z,100.00
2019-04-28T21:46:22.497Z,100.00
2019-04-28T21:48:53.684Z,100.00
2019-04-28T21:51:23.166Z,100.00
2019-04-28T21:53:52.663Z,100.00
2019-04-28T21:56:22.184Z,100.00
2019-04-28T21:58:51.686Z,100.00
2019-04-28T22:01:23.273Z,100.00
2019-04-28T22:03:52.779Z,100.00
2019-04-28T22:06:22.341Z,100.00
2019-04-28T22:08:51.893Z,100.00
2019-04-28T22:11:21.372Z,100.00
2019-04-28T22:13:50.852Z,100.00
2019-04-28T22:16:20.346Z,100.00
2019-04-28T22:18:49.871Z,100.00
2019-04-28T22:21:19.382Z,100.00
2019-04-28T22:23:50.591Z,100.00
2019-04-28T22:26:37.508Z,100.00
2019-04-28T22:29:07.077Z,100.00
2019-04-28T22:31:36.546Z,100.00
2019-04-28T22:34:06.166Z,100.00
2019-04-28T22:36:35.756Z,100.00
2019-04-28T22:39:07.802Z,100.00
2019-04-28T22:41:37.668Z,100.00
2019-04-28T22:44:07.387Z,100.00
2019-04-28T22:46:37.133Z,100.00
2019-04-28T22:49:06.938Z,100.00
2019-04-28T22:51:36.671Z,100.00
2019-04-28T22:54:10.787Z,100.00
2019-04-28T22:56:41.980Z,100.00
2019-04-28T22:59:24.980Z,100.00
2019-04-28T23:01:59.140Z,100.00
2019-04-28T23:04:30.344Z,100.00
2019-04-28T23:06:59.992Z,100.00
2019-04-28T23:09:29.679Z,100.00
2019-04-28T23:11:59.164Z,100.00
2019-04-28T23:14:28.746Z,100.00
2019-04-28T23:16:58.479Z,100.00
2019-04-28T23:19:29.718Z,100.00
2019-04-28T23:22:15.791Z,100.00
2019-04-28T23:24:45.299Z,100.00
2019-04-28T23:27:14.786Z,100.00
2019-04-28T23:29:44.304Z,100.00
2019-04-28T23:32:14.535Z,100.00
2019-04-28T23:34:44.078Z,100.00
2019-04-28T23:37:13.740Z,100.00
2019-04-28T23:39:43.286Z,100.00
2019-04-28T23:42:29.153Z,100.00
2019-04-28T23:44:58.629Z,100.00
2019-04-28T23:47:28.133Z,100.00
2019-04-28T23:49:57.899Z,100.00
2019-04-28T23:52:29.017Z,100.00
2019-04-28T23:55:00.166Z,100.00
2019-04-28T23:57:29.676Z,100.00
2019-04-28T23:59:59.162Z,100.00
